sensor_id;sensor_type;location;lat;lon;timestamp;P1;durP1;ratioP1;P2;durP2;ratioP2
69588;SDS011;56792;50.644;17.984;2023-04-01T00:00:55;6.90;;;3.60;;
69588;SDS011;56792;50.644;17.984;2023-04-01T00:03:25;4.80;;;2.90;;
69588;SDS011;56792;50.644;17.984;2023-04-01T00:05:54;5.00;;;3.60;;
69588;SDS011;56792;50.644;17.984;2023-04-01T00:08:24;9.40;;;5.20;;
69588;SDS011;56792;50.644;17.984;2023-04-01T00:10:53;6.90;;;3.80;;
69588;SDS011;56792;50.644;17.984;2023-04-01T00:13:22;6.70;;;3.60;;
69588;SDS011;56792;50.644;17.984;2023-04-01T00:15:50;5.70;;;3.60;;
69588;SDS011;56792;50.644;17.984;2023-04-01T00:18:19;8.00;;;3.90;;
69588;SDS011;56792;50.644;17.984;2023-04-01T00:20:48;7.70;;;3.60;;
69588;SDS011;56792;50.644;17.984;2023-04-01T00:23:18;7.00;;;3.80;;
69588;SDS011;56792;50.644;17.984;2023-04-01T00:25:47;7.00;;;3.70;;
69588;SDS011;56792;50.644;17.984;2023-04-01T00:28:17;7.50;;;3.80;;
69588;SDS011;56792;50.644;17.984;2023-04-01T00:30:47;7.90;;;3.50;;
69588;SDS011;56792;50.644;17.984;2023-04-01T00:33:15;7.40;;;4.00;;
69588;SDS011;56792;50.644;17.984;2023-04-01T00:35:44;7.40;;;4.00;;
69588;SDS011;56792;50.644;17.984;2023-04-01T00:38:12;8.50;;;4.50;;
69588;SDS011;56792;50.644;17.984;2023-04-01T00:40:42;8.10;;;4.20;;
69588;SDS011;56792;50.644;17.984;2023-04-01T00:43:14;8.40;;;5.00;;
69588;SDS011;56792;50.644;17.984;2023-04-01T00:45:47;11.70;;;6.30;;
69588;SDS011;56792;50.644;17.984;2023-04-01T00:48:18;11.70;;;7.40;;
69588;SDS011;56792;50.644;17.984;2023-04-01T00:50:52;11.10;;;6.60;;
69588;SDS011;56792;50.644;17.984;2023-04-01T00:53:24;12.50;;;6.40;;
69588;SDS011;56792;50.644;17.984;2023-04-01T00:55:56;8.70;;;5.40;;
69588;SDS011;56792;50.644;17.984;2023-04-01T00:58:31;8.80;;;5.40;;
69588;SDS011;56792;50.644;17.984;2023-04-01T01:01:03;7.40;;;6.00;;
69588;SDS011;56792;50.644;17.984;2023-04-01T01:03:33;9.40;;;5.00;;
69588;SDS011;56792;50.644;17.984;2023-04-01T01:06:10;8.90;;;4.70;;
69588;SDS011;56792;50.644;17.984;2023-04-01T01:09:06;7.60;;;5.30;;
69588;SDS011;56792;50.644;17.984;2023-04-01T01:11:43;9.10;;;6.70;;
69588;SDS011;56792;50.644;17.984;2023-04-01T01:14:28;10.90;;;6.40;;
69588;SDS011;56792;50.644;17.984;2023-04-01T01:17:12;9.00;;;7.70;;
69588;SDS011;56792;50.644;17.984;2023-04-01T01:19:57;11.20;;;8.10;;
69588;SDS011;56792;50.644;17.984;2023-04-01T01:22:54;7.30;;;5.40;;
69588;SDS011;56792;50.644;17.984;2023-04-01T01:25:41;10.10;;;5.70;;
69588;SDS011;56792;50.644;17.984;2023-04-01T01:28:32;9.10;;;5.30;;
69588;SDS011;56792;50.644;17.984;2023-04-01T01:31:11;10.20;;;6.70;;
69588;SDS011;56792;50.644;17.984;2023-04-01T01:33:58;8.70;;;5.40;;
69588;SDS011;56792;50.644;17.984;2023-04-01T01:36:33;9.60;;;5.70;;
69588;SDS011;56792;50.644;17.984;2023-04-01T01:39:07;8.30;;;4.80;;
69588;SDS011;56792;50.644;17.984;2023-04-01T01:41:38;7.80;;;5.60;;
69588;SDS011;56792;50.644;17.984;2023-04-01T01:44:11;9.20;;;6.50;;
69588;SDS011;56792;50.644;17.984;2023-04-01T01:46:41;8.80;;;5.40;;
69588;SDS011;56792;50.644;17.984;2023-04-01T01:49:12;6.60;;;4.10;;
69588;SDS011;56792;50.644;17.984;2023-04-01T01:51:42;7.70;;;4.60;;
69588;SDS011;56792;50.644;17.984;2023-04-01T01:54:13;9.20;;;5.10;;
69588;SDS011;56792;50.644;17.984;2023-04-01T01:56:45;8.60;;;4.60;;
69588;SDS011;56792;50.644;17.984;2023-04-01T01:59:18;7.60;;;4.10;;
69588;SDS011;56792;50.644;17.984;2023-04-01T02:01:51;6.80;;;3.30;;
69588;SDS011;56792;50.644;17.984;2023-04-01T02:04:23;6.10;;;4.20;;
69588;SDS011;56792;50.644;17.984;2023-04-01T02:06:56;7.50;;;4.20;;
69588;SDS011;56792;50.644;17.984;2023-04-01T02:09:28;7.10;;;3.30;;
69588;SDS011;56792;50.644;17.984;2023-04-01T02:11:58;7.30;;;3.40;;
69588;SDS011;56792;50.644;17.984;2023-04-01T02:14:37;6.70;;;3.90;;
69588;SDS011;56792;50.644;17.984;2023-04-01T02:17:12;6.80;;;3.70;;
69588;SDS011;56792;50.644;17.984;2023-04-01T02:19:47;6.60;;;3.50;;
69588;SDS011;56792;50.644;17.984;2023-04-01T02:22:21;6.70;;;3.00;;
69588;SDS011;56792;50.644;17.984;2023-04-01T02:24:54;6.90;;;3.50;;
69588;SDS011;56792;50.644;17.984;2023-04-01T02:27:26;7.30;;;4.10;;
69588;SDS011;56792;50.644;17.984;2023-04-01T02:29:55;6.70;;;3.30;;
69588;SDS011;56792;50.644;17.984;2023-04-01T02:32:24;5.10;;;3.20;;
69588;SDS011;56792;50.644;17.984;2023-04-01T02:34:54;8.50;;;3.80;;
69588;SDS011;56792;50.644;17.984;2023-04-01T02:37:23;5.20;;;3.00;;
69588;SDS011;56792;50.644;17.984;2023-04-01T02:39:51;6.50;;;3.20;;
69588;SDS011;56792;50.644;17.984;2023-04-01T02:42:20;6.50;;;3.60;;
69588;SDS011;56792;50.644;17.984;2023-04-01T02:44:48;6.60;;;3.30;;
69588;SDS011;56792;50.644;17.984;2023-04-01T02:47:16;6.10;;;3.30;;
69588;SDS011;56792;50.644;17.984;2023-04-01T02:49:44;7.70;;;3.60;;
69588;SDS011;56792;50.644;17.984;2023-04-01T02:52:13;4.40;;;3.00;;
69588;SDS011;56792;50.644;17.984;2023-04-01T02:54:41;8.70;;;6.70;;
69588;SDS011;56792;50.644;17.984;2023-04-01T02:57:09;9.40;;;6.30;;
69588;SDS011;56792;50.644;17.984;2023-04-01T02:59:37;9.10;;;6.00;;
69588;SDS011;56792;50.644;17.984;2023-04-01T03:02:05;6.10;;;3.70;;
69588;SDS011;56792;50.644;17.984;2023-04-01T03:04:34;7.20;;;3.90;;
69588;SDS011;56792;50.644;17.984;2023-04-01T03:07:02;7.50;;;4.30;;
69588;SDS011;56792;50.644;17.984;2023-04-01T03:09:31;7.80;;;4.20;;
69588;SDS011;56792;50.644;17.984;2023-04-01T03:12:00;5.60;;;4.20;;
69588;SDS011;56792;50.644;17.984;2023-04-01T03:14:28;6.90;;;3.70;;
69588;SDS011;56792;50.644;17.984;2023-04-01T03:16:57;12.50;;;8.80;;
69588;SDS011;56792;50.644;17.984;2023-04-01T03:19:25;12.90;;;9.60;;
69588;SDS011;56792;50.644;17.984;2023-04-01T03:21:53;9.80;;;7.80;;
69588;SDS011;56792;50.644;17.984;2023-04-01T03:24:22;14.00;;;8.60;;
69588;SDS011;56792;50.644;17.984;2023-04-01T03:26:50;6.80;;;4.30;;
69588;SDS011;56792;50.644;17.984;2023-04-01T03:29:19;6.90;;;4.20;;
69588;SDS011;56792;50.644;17.984;2023-04-01T03:31:47;4.30;;;3.00;;
69588;SDS011;56792;50.644;17.984;2023-04-01T03:34:15;6.40;;;3.80;;
69588;SDS011;56792;50.644;17.984;2023-04-01T03:36:44;6.80;;;5.10;;
69588;SDS011;56792;50.644;17.984;2023-04-01T03:39:12;8.30;;;4.30;;
69588;SDS011;56792;50.644;17.984;2023-04-01T03:41:41;8.70;;;5.20;;
69588;SDS011;56792;50.644;17.984;2023-04-01T03:44:09;9.70;;;6.00;;
69588;SDS011;56792;50.644;17.984;2023-04-01T03:46:37;10.20;;;8.10;;
69588;SDS011;56792;50.644;17.984;2023-04-01T03:49:07;17.40;;;13.70;;
69588;SDS011;56792;50.644;17.984;2023-04-01T03:51:38;15.30;;;12.10;;
69588;SDS011;56792;50.644;17.984;2023-04-01T03:54:07;8.20;;;5.40;;
69588;SDS011;56792;50.644;17.984;2023-04-01T03:56:36;9.90;;;7.50;;
69588;SDS011;56792;50.644;17.984;2023-04-01T03:59:06;8.80;;;7.10;;
69588;SDS011;56792;50.644;17.984;2023-04-01T04:01:35;11.10;;;8.00;;
69588;SDS011;56792;50.644;17.984;2023-04-01T04:04:03;11.90;;;8.50;;
69588;SDS011;56792;50.644;17.984;2023-04-01T04:06:33;10.30;;;8.00;;
69588;SDS011;56792;50.644;17.984;2023-04-01T04:09:01;13.90;;;11.50;;
69588;SDS011;56792;50.644;17.984;2023-04-01T04:11:31;15.50;;;11.80;;
69588;SDS011;56792;50.644;17.984;2023-04-01T04:13:59;11.90;;;7.00;;
69588;SDS011;56792;50.644;17.984;2023-04-01T04:16:28;10.40;;;5.90;;
69588;SDS011;56792;50.644;17.984;2023-04-01T04:18:59;8.50;;;5.90;;
69588;SDS011;56792;50.644;17.984;2023-04-01T04:21:27;8.80;;;5.00;;
69588;SDS011;56792;50.644;17.984;2023-04-01T04:23:55;16.60;;;7.80;;
69588;SDS011;56792;50.644;17.984;2023-04-01T04:26:25;18.60;;;11.70;;
69588;SDS011;56792;50.644;17.984;2023-04-01T04:28:59;17.80;;;11.60;;
69588;SDS011;56792;50.644;17.984;2023-04-01T04:31:28;15.70;;;10.60;;
69588;SDS011;56792;50.644;17.984;2023-04-01T04:33:59;17.80;;;9.90;;
69588;SDS011;56792;50.644;17.984;2023-04-01T04:36:28;15.50;;;8.70;;
69588;SDS011;56792;50.644;17.984;2023-04-01T04:38:56;17.20;;;10.70;;
69588;SDS011;56792;50.644;17.984;2023-04-01T04:41:25;14.90;;;9.50;;
69588;SDS011;56792;50.644;17.984;2023-04-01T04:43:55;14.40;;;7.70;;
69588;SDS011;56792;50.644;17.984;2023-04-01T04:46:25;13.20;;;7.30;;
69588;SDS011;56792;50.644;17.984;2023-04-01T04:49:01;15.20;;;12.50;;
69588;SDS011;56792;50.644;17.984;2023-04-01T04:51:29;13.30;;;8.40;;
69588;SDS011;56792;50.644;17.984;2023-04-01T04:54:00;16.00;;;9.70;;
69588;SDS011;56792;50.644;17.984;2023-04-01T04:56:40;9.80;;;6.60;;
69588;SDS011;56792;50.644;17.984;2023-04-01T04:59:09;13.30;;;8.10;;
69588;SDS011;56792;50.644;17.984;2023-04-01T05:01:56;8.00;;;5.70;;
69588;SDS011;56792;50.644;17.984;2023-04-01T05:04:24;8.00;;;4.80;;
69588;SDS011;56792;50.644;17.984;2023-04-01T05:06:52;8.30;;;6.20;;
69588;SDS011;56792;50.644;17.984;2023-04-01T05:09:20;8.50;;;6.00;;
69588;SDS011;56792;50.644;17.984;2023-04-01T05:11:48;13.70;;;11.30;;
69588;SDS011;56792;50.644;17.984;2023-04-01T05:14:17;11.80;;;9.00;;
69588;SDS011;56792;50.644;17.984;2023-04-01T05:16:53;7.80;;;4.50;;
69588;SDS011;56792;50.644;17.984;2023-04-01T05:19:21;5.90;;;4.00;;
69588;SDS011;56792;50.644;17.984;2023-04-01T05:21:49;5.00;;;3.00;;
69588;SDS011;56792;50.644;17.984;2023-04-01T05:24:19;5.60;;;2.60;;
69588;SDS011;56792;50.644;17.984;2023-04-01T05:26:48;4.10;;;2.30;;
69588;SDS011;56792;50.644;17.984;2023-04-01T05:29:16;5.50;;;2.50;;
69588;SDS011;56792;50.644;17.984;2023-04-01T05:31:44;6.20;;;2.50;;
69588;SDS011;56792;50.644;17.984;2023-04-01T05:34:13;4.10;;;2.50;;
69588;SDS011;56792;50.644;17.984;2023-04-01T05:36:42;5.60;;;3.00;;
69588;SDS011;56792;50.644;17.984;2023-04-01T05:39:11;4.60;;;2.50;;
69588;SDS011;56792;50.644;17.984;2023-04-01T05:41:40;5.80;;;2.80;;
69588;SDS011;56792;50.644;17.984;2023-04-01T05:44:12;5.70;;;3.00;;
69588;SDS011;56792;50.644;17.984;2023-04-01T05:46:40;6.70;;;2.80;;
69588;SDS011;56792;50.644;17.984;2023-04-01T05:49:15;6.00;;;2.60;;
69588;SDS011;56792;50.644;17.984;2023-04-01T05:51:43;5.00;;;2.80;;
69588;SDS011;56792;50.644;17.984;2023-04-01T05:54:11;4.70;;;2.80;;
69588;SDS011;56792;50.644;17.984;2023-04-01T05:56:39;5.30;;;3.10;;
69588;SDS011;56792;50.644;17.984;2023-04-01T05:59:10;6.70;;;2.80;;
69588;SDS011;56792;50.644;17.984;2023-04-01T06:01:39;4.80;;;2.70;;
69588;SDS011;56792;50.644;17.984;2023-04-01T06:04:09;5.10;;;2.90;;
69588;SDS011;56792;50.644;17.984;2023-04-01T06:06:40;6.20;;;3.10;;
69588;SDS011;56792;50.644;17.984;2023-04-01T06:09:14;4.10;;;2.60;;
69588;SDS011;56792;50.644;17.984;2023-04-01T06:12:00;5.20;;;2.80;;
69588;SDS011;56792;50.644;17.984;2023-04-01T06:14:57;5.60;;;2.60;;
69588;SDS011;56792;50.644;17.984;2023-04-01T06:17:43;5.80;;;2.50;;
69588;SDS011;56792;50.644;17.984;2023-04-01T06:20:34;4.70;;;2.80;;
69588;SDS011;56792;50.644;17.984;2023-04-01T06:23:17;5.20;;;2.80;;
69588;SDS011;56792;50.644;17.984;2023-04-01T06:26:12;4.10;;;2.70;;
69588;SDS011;56792;50.644;17.984;2023-04-01T06:29:10;7.20;;;3.10;;
69588;SDS011;56792;50.644;17.984;2023-04-01T06:32:06;5.60;;;2.70;;
69588;SDS011;56792;50.644;17.984;2023-04-01T06:35:15;4.60;;;2.60;;
69588;SDS011;56792;50.644;17.984;2023-04-01T06:38:04;4.50;;;2.80;;
69588;SDS011;56792;50.644;17.984;2023-04-01T06:41:02;4.40;;;2.50;;
69588;SDS011;56792;50.644;17.984;2023-04-01T06:43:50;4.70;;;2.40;;
69588;SDS011;56792;50.644;17.984;2023-04-01T06:46:56;5.30;;;2.70;;
69588;SDS011;56792;50.644;17.984;2023-04-01T06:50:11;4.80;;;2.60;;
69588;SDS011;56792;50.644;17.984;2023-04-01T06:53:12;5.90;;;2.20;;
69588;SDS011;56792;50.644;17.984;2023-04-01T06:56:06;3.30;;;2.00;;
69588;SDS011;56792;50.644;17.984;2023-04-01T06:58:58;3.90;;;2.30;;
69588;SDS011;56792;50.644;17.984;2023-04-01T07:01:35;6.10;;;2.70;;
69588;SDS011;56792;50.644;17.984;2023-04-01T07:04:13;4.60;;;2.20;;
69588;SDS011;56792;50.644;17.984;2023-04-01T07:06:46;3.90;;;2.40;;
69588;SDS011;56792;50.644;17.984;2023-04-01T07:09:20;5.70;;;2.50;;
69588;SDS011;56792;50.644;17.984;2023-04-01T07:12:18;3.70;;;2.20;;
69588;SDS011;56792;50.644;17.984;2023-04-01T07:15:18;4.20;;;2.20;;
69588;SDS011;56792;50.644;17.984;2023-04-01T07:17:53;4.20;;;1.90;;
69588;SDS011;56792;50.644;17.984;2023-04-01T07:20:29;5.80;;;2.90;;
69588;SDS011;56792;50.644;17.984;2023-04-01T07:23:00;3.60;;;2.20;;
69588;SDS011;56792;50.644;17.984;2023-04-01T07:25:39;4.40;;;2.30;;
69588;SDS011;56792;50.644;17.984;2023-04-01T07:28:34;4.10;;;2.40;;
69588;SDS011;56792;50.644;17.984;2023-04-01T07:31:18;4.50;;;2.50;;
69588;SDS011;56792;50.644;17.984;2023-04-01T07:33:59;4.80;;;2.80;;
69588;SDS011;56792;50.644;17.984;2023-04-01T07:36:38;3.60;;;2.20;;
69588;SDS011;56792;50.644;17.984;2023-04-01T07:39:15;4.70;;;1.90;;
69588;SDS011;56792;50.644;17.984;2023-04-01T07:42:24;4.50;;;2.20;;
69588;SDS011;56792;50.644;17.984;2023-04-01T07:45:09;4.50;;;2.10;;
69588;SDS011;56792;50.644;17.984;2023-04-01T07:47:59;4.70;;;2.50;;
69588;SDS011;56792;50.644;17.984;2023-04-01T07:50:41;4.40;;;2.50;;
69588;SDS011;56792;50.644;17.984;2023-04-01T07:53:23;4.40;;;2.70;;
69588;SDS011;56792;50.644;17.984;2023-04-01T07:56:02;4.80;;;2.70;;
69588;SDS011;56792;50.644;17.984;2023-04-01T07:58:44;6.40;;;3.70;;
69588;SDS011;56792;50.644;17.984;2023-04-01T08:01:55;4.30;;;2.50;;
69588;SDS011;56792;50.644;17.984;2023-04-01T08:04:42;5.90;;;2.50;;
69588;SDS011;56792;50.644;17.984;2023-04-01T08:07:22;5.20;;;2.30;;
69588;SDS011;56792;50.644;17.984;2023-04-01T08:10:14;4.40;;;2.10;;
69588;SDS011;56792;50.644;17.984;2023-04-01T08:13:17;4.20;;;2.20;;
69588;SDS011;56792;50.644;17.984;2023-04-01T08:16:18;5.60;;;3.40;;
69588;SDS011;56792;50.644;17.984;2023-04-01T08:18:59;3.90;;;2.10;;
69588;SDS011;56792;50.644;17.984;2023-04-01T08:21:42;4.50;;;2.30;;
69588;SDS011;56792;50.644;17.984;2023-04-01T08:24:18;3.90;;;2.40;;
69588;SDS011;56792;50.644;17.984;2023-04-01T08:26:55;4.10;;;2.40;;
69588;SDS011;56792;50.644;17.984;2023-04-01T08:29:36;4.20;;;2.50;;
69588;SDS011;56792;50.644;17.984;2023-04-01T08:32:12;4.80;;;2.00;;
69588;SDS011;56792;50.644;17.984;2023-04-01T08:34:51;4.60;;;2.20;;
69588;SDS011;56792;50.644;17.984;2023-04-01T08:37:32;4.90;;;2.20;;
69588;SDS011;56792;50.644;17.984;2023-04-01T08:40:22;3.90;;;2.20;;
69588;SDS011;56792;50.644;17.984;2023-04-01T08:43:11;3.50;;;2.00;;
69588;SDS011;56792;50.644;17.984;2023-04-01T08:45:59;4.00;;;2.40;;
69588;SDS011;56792;50.644;17.984;2023-04-01T08:52:15;4.00;;;2.00;;
69588;SDS011;56792;50.644;17.984;2023-04-01T08:58:46;4.20;;;2.40;;
69588;SDS011;56792;50.644;17.984;2023-04-01T09:01:53;4.10;;;2.20;;
69588;SDS011;56792;50.644;17.984;2023-04-01T09:08:24;3.70;;;1.90;;
69588;SDS011;56792;50.644;17.984;2023-04-01T09:11:07;3.90;;;2.40;;
69588;SDS011;56792;50.644;17.984;2023-04-01T09:17:29;4.40;;;2.40;;
69588;SDS011;56792;50.644;17.984;2023-04-01T09:20:38;4.60;;;2.50;;
69588;SDS011;56792;50.644;17.984;2023-04-01T09:23:32;4.40;;;3.20;;
69588;SDS011;56792;50.644;17.984;2023-04-01T09:26:33;4.50;;;2.50;;
69588;SDS011;56792;50.644;17.984;2023-04-01T09:29:23;4.60;;;2.70;;
69588;SDS011;56792;50.644;17.984;2023-04-01T09:32:12;4.00;;;2.60;;
69588;SDS011;56792;50.644;17.984;2023-04-01T09:35:26;6.30;;;2.50;;
69588;SDS011;56792;50.644;17.984;2023-04-01T09:38:17;4.20;;;2.10;;
69588;SDS011;56792;50.644;17.984;2023-04-01T09:40:55;5.60;;;2.90;;
69588;SDS011;56792;50.644;17.984;2023-04-01T09:43:51;5.40;;;2.60;;
69588;SDS011;56792;50.644;17.984;2023-04-01T09:46:37;4.70;;;2.40;;
69588;SDS011;56792;50.644;17.984;2023-04-01T09:49:31;4.00;;;2.20;;
69588;SDS011;56792;50.644;17.984;2023-04-01T09:52:24;5.50;;;2.90;;
69588;SDS011;56792;50.644;17.984;2023-04-01T09:55:25;4.80;;;2.50;;
69588;SDS011;56792;50.644;17.984;2023-04-01T09:58:34;5.90;;;3.40;;
69588;SDS011;56792;50.644;17.984;2023-04-01T10:01:57;5.20;;;3.20;;
69588;SDS011;56792;50.644;17.984;2023-04-01T10:08:25;5.10;;;2.90;;
69588;SDS011;56792;50.644;17.984;2023-04-01T10:11:44;4.30;;;3.60;;
69588;SDS011;56792;50.644;17.984;2023-04-01T10:14:49;6.30;;;2.70;;
69588;SDS011;56792;50.644;17.984;2023-04-01T10:18:06;5.10;;;3.40;;
69588;SDS011;56792;50.644;17.984;2023-04-01T10:21:03;4.30;;;2.90;;
69588;SDS011;56792;50.644;17.984;2023-04-01T10:23:56;4.90;;;3.40;;
69588;SDS011;56792;50.644;17.984;2023-04-01T10:36:54;4.40;;;2.70;;
69588;SDS011;56792;50.644;17.984;2023-04-01T10:40:12;5.20;;;2.80;;
69588;SDS011;56792;50.644;17.984;2023-04-01T10:47:02;5.10;;;2.60;;
69588;SDS011;56792;50.644;17.984;2023-04-01T10:49:57;6.60;;;2.90;;
69588;SDS011;56792;50.644;17.984;2023-04-01T10:53:35;4.90;;;2.60;;
69588;SDS011;56792;50.644;17.984;2023-04-01T10:56:41;7.00;;;3.30;;
69588;SDS011;56792;50.644;17.984;2023-04-01T10:59:51;7.50;;;3.90;;
69588;SDS011;56792;50.644;17.984;2023-04-01T11:10:17;4.80;;;2.40;;
69588;SDS011;56792;50.644;17.984;2023-04-01T11:13:28;3.90;;;2.20;;
69588;SDS011;56792;50.644;17.984;2023-04-01T11:20:02;5.10;;;3.30;;
69588;SDS011;56792;50.644;17.984;2023-04-01T11:22:52;5.00;;;3.80;;
69588;SDS011;56792;50.644;17.984;2023-04-01T11:26:02;4.50;;;2.70;;
69588;SDS011;56792;50.644;17.984;2023-04-01T11:32:31;6.80;;;3.40;;
69588;SDS011;56792;50.644;17.984;2023-04-01T11:35:32;4.90;;;3.50;;
69588;SDS011;56792;50.644;17.984;2023-04-01T11:38:22;5.70;;;3.10;;
69588;SDS011;56792;50.644;17.984;2023-04-01T11:41:38;4.60;;;3.50;;
69588;SDS011;56792;50.644;17.984;2023-04-01T11:44:45;5.00;;;3.00;;
69588;SDS011;56792;50.644;17.984;2023-04-01T11:47:41;4.50;;;3.00;;
69588;SDS011;56792;50.644;17.984;2023-04-01T11:50:26;4.50;;;2.70;;
69588;SDS011;56792;50.644;17.984;2023-04-01T11:53:22;5.10;;;2.60;;
69588;SDS011;56792;50.644;17.984;2023-04-01T11:56:07;3.40;;;1.80;;
69588;SDS011;56792;50.644;17.984;2023-04-01T12:02:04;3.90;;;1.70;;
69588;SDS011;56792;50.644;17.984;2023-04-01T12:04:47;5.20;;;2.90;;
69588;SDS011;56792;50.644;17.984;2023-04-01T12:07:38;3.90;;;2.20;;
69588;SDS011;56792;50.644;17.984;2023-04-01T12:10:19;5.80;;;2.40;;
69588;SDS011;56792;50.644;17.984;2023-04-01T12:13:02;3.50;;;1.60;;
69588;SDS011;56792;50.644;17.984;2023-04-01T12:15:44;3.60;;;1.80;;
69588;SDS011;56792;50.644;17.984;2023-04-01T12:18:27;3.90;;;2.10;;
69588;SDS011;56792;50.644;17.984;2023-04-01T12:21:11;3.70;;;1.90;;
69588;SDS011;56792;50.644;17.984;2023-04-01T12:24:07;8.00;;;2.60;;
69588;SDS011;56792;50.644;17.984;2023-04-01T12:27:09;5.50;;;1.90;;
69588;SDS011;56792;50.644;17.984;2023-04-01T12:30:02;5.70;;;2.20;;
69588;SDS011;56792;50.644;17.984;2023-04-01T12:32:45;4.30;;;2.30;;
69588;SDS011;56792;50.644;17.984;2023-04-01T12:35:22;4.00;;;2.30;;
69588;SDS011;56792;50.644;17.984;2023-04-01T12:38:04;4.00;;;2.30;;
69588;SDS011;56792;50.644;17.984;2023-04-01T12:40:57;5.20;;;2.30;;
69588;SDS011;56792;50.644;17.984;2023-04-01T12:43:59;5.00;;;2.70;;
69588;SDS011;56792;50.644;17.984;2023-04-01T12:47:04;5.60;;;3.30;;
69588;SDS011;56792;50.644;17.984;2023-04-01T12:49:56;5.00;;;2.70;;
69588;SDS011;56792;50.644;17.984;2023-04-01T12:52:57;6.00;;;2.70;;
69588;SDS011;56792;50.644;17.984;2023-04-01T12:55:39;12.60;;;7.00;;
69588;SDS011;56792;50.644;17.984;2023-04-01T12:58:48;6.20;;;3.50;;
69588;SDS011;56792;50.644;17.984;2023-04-01T13:02:04;6.60;;;3.60;;
69588;SDS011;56792;50.644;17.984;2023-04-01T13:05:01;4.30;;;2.60;;
69588;SDS011;56792;50.644;17.984;2023-04-01T13:08:00;5.30;;;3.10;;
69588;SDS011;56792;50.644;17.984;2023-04-01T13:10:53;7.20;;;3.40;;
69588;SDS011;56792;50.644;17.984;2023-04-01T13:13:49;3.60;;;2.00;;
69588;SDS011;56792;50.644;17.984;2023-04-01T13:16:30;3.90;;;2.20;;
69588;SDS011;56792;50.644;17.984;2023-04-01T13:19:06;6.30;;;3.90;;
69588;SDS011;56792;50.644;17.984;2023-04-01T13:21:51;5.20;;;2.50;;
69588;SDS011;56792;50.644;17.984;2023-04-01T13:24:39;8.00;;;3.80;;
69588;SDS011;56792;50.644;17.984;2023-04-01T13:27:18;6.00;;;3.10;;
69588;SDS011;56792;50.644;17.984;2023-04-01T13:30:11;5.50;;;3.00;;
69588;SDS011;56792;50.644;17.984;2023-04-01T13:32:55;6.80;;;3.10;;
69588;SDS011;56792;50.644;17.984;2023-04-01T13:35:37;4.00;;;2.60;;
69588;SDS011;56792;50.644;17.984;2023-04-01T13:38:38;6.40;;;3.70;;
69588;SDS011;56792;50.644;17.984;2023-04-01T13:41:24;4.60;;;2.70;;
69588;SDS011;56792;50.644;17.984;2023-04-01T13:44:11;4.90;;;2.90;;
69588;SDS011;56792;50.644;17.984;2023-04-01T13:50:40;4.40;;;2.00;;
69588;SDS011;56792;50.644;17.984;2023-04-01T13:53:46;5.90;;;3.40;;
69588;SDS011;56792;50.644;17.984;2023-04-01T13:56:34;5.80;;;3.20;;
69588;SDS011;56792;50.644;17.984;2023-04-01T14:02:47;5.00;;;2.20;;
69588;SDS011;56792;50.644;17.984;2023-04-01T14:05:43;4.70;;;2.50;;
69588;SDS011;56792;50.644;17.984;2023-04-01T14:08:36;4.60;;;2.90;;
69588;SDS011;56792;50.644;17.984;2023-04-01T14:11:21;4.70;;;2.90;;
69588;SDS011;56792;50.644;17.984;2023-04-01T14:14:01;5.30;;;2.60;;
69588;SDS011;56792;50.644;17.984;2023-04-01T14:17:09;4.90;;;2.80;;
69588;SDS011;56792;50.644;17.984;2023-04-01T14:23:13;5.80;;;3.30;;
69588;SDS011;56792;50.644;17.984;2023-04-01T14:26:11;6.30;;;3.60;;
69588;SDS011;56792;50.644;17.984;2023-04-01T14:28:54;7.20;;;3.30;;
69588;SDS011;56792;50.644;17.984;2023-04-01T14:31:44;6.30;;;4.00;;
69588;SDS011;56792;50.644;17.984;2023-04-01T14:34:31;5.30;;;2.40;;
69588;SDS011;56792;50.644;17.984;2023-04-01T14:37:19;4.60;;;3.30;;
69588;SDS011;56792;50.644;17.984;2023-04-01T14:40:19;4.50;;;2.30;;
69588;SDS011;56792;50.644;17.984;2023-04-01T14:46:14;5.10;;;1.60;;
69588;SDS011;56792;50.644;17.984;2023-04-01T14:48:57;3.50;;;1.70;;
69588;SDS011;56792;50.644;17.984;2023-04-01T14:51:32;3.40;;;1.80;;
69588;SDS011;56792;50.644;17.984;2023-04-01T14:54:08;3.50;;;1.80;;
69588;SDS011;56792;50.644;17.984;2023-04-01T14:56:44;4.20;;;1.90;;
69588;SDS011;56792;50.644;17.984;2023-04-01T14:59:27;4.30;;;1.90;;
69588;SDS011;56792;50.644;17.984;2023-04-01T15:02:02;3.70;;;2.30;;
69588;SDS011;56792;50.644;17.984;2023-04-01T15:04:50;3.00;;;1.70;;
69588;SDS011;56792;50.644;17.984;2023-04-01T15:07:49;3.20;;;1.80;;
69588;SDS011;56792;50.644;17.984;2023-04-01T15:10:46;3.50;;;2.00;;
69588;SDS011;56792;50.644;17.984;2023-04-01T15:13:35;3.80;;;1.90;;
69588;SDS011;56792;50.644;17.984;2023-04-01T15:16:20;4.10;;;1.80;;
69588;SDS011;56792;50.644;17.984;2023-04-01T15:19:02;6.10;;;2.80;;
69588;SDS011;56792;50.644;17.984;2023-04-01T15:21:48;7.10;;;3.40;;
69588;SDS011;56792;50.644;17.984;2023-04-01T15:24:25;6.80;;;3.40;;
69588;SDS011;56792;50.644;17.984;2023-04-01T15:27:13;4.70;;;2.50;;
69588;SDS011;56792;50.644;17.984;2023-04-01T15:29:58;3.20;;;1.50;;
69588;SDS011;56792;50.644;17.984;2023-04-01T15:32:47;7.60;;;3.80;;
69588;SDS011;56792;50.644;17.984;2023-04-01T15:35:33;18.50;;;9.30;;
69588;SDS011;56792;50.644;17.984;2023-04-01T15:38:11;34.70;;;15.90;;
69588;SDS011;56792;50.644;17.984;2023-04-01T15:40:54;18.60;;;9.10;;
69588;SDS011;56792;50.644;17.984;2023-04-01T15:43:36;13.30;;;7.40;;
69588;SDS011;56792;50.644;17.984;2023-04-01T15:46:20;11.30;;;7.40;;
69588;SDS011;56792;50.644;17.984;2023-04-01T15:49:03;7.70;;;4.40;;
69588;SDS011;56792;50.644;17.984;2023-04-01T15:51:48;5.70;;;3.10;;
69588;SDS011;56792;50.644;17.984;2023-04-01T15:54:54;5.80;;;2.40;;
69588;SDS011;56792;50.644;17.984;2023-04-01T15:57:42;4.80;;;2.50;;
69588;SDS011;56792;50.644;17.984;2023-04-01T16:00:26;6.60;;;4.90;;
69588;SDS011;56792;50.644;17.984;2023-04-01T16:03:13;5.60;;;4.00;;
69588;SDS011;56792;50.644;17.984;2023-04-01T16:05:57;4.10;;;2.40;;
69588;SDS011;56792;50.644;17.984;2023-04-01T16:08:51;4.00;;;2.00;;
69588;SDS011;56792;50.644;17.984;2023-04-01T16:11:45;3.80;;;2.20;;
69588;SDS011;56792;50.644;17.984;2023-04-01T16:14:31;7.10;;;3.70;;
69588;SDS011;56792;50.644;17.984;2023-04-01T16:17:31;5.90;;;3.30;;
69588;SDS011;56792;50.644;17.984;2023-04-01T16:20:20;5.00;;;3.20;;
69588;SDS011;56792;50.644;17.984;2023-04-01T16:22:57;4.10;;;2.20;;
69588;SDS011;56792;50.644;17.984;2023-04-01T16:25:36;6.30;;;3.20;;
69588;SDS011;56792;50.644;17.984;2023-04-01T16:28:19;9.10;;;3.80;;
69588;SDS011;56792;50.644;17.984;2023-04-01T16:30:59;8.80;;;3.50;;
69588;SDS011;56792;50.644;17.984;2023-04-01T16:33:37;9.50;;;4.90;;
69588;SDS011;56792;50.644;17.984;2023-04-01T16:36:22;8.10;;;3.90;;
69588;SDS011;56792;50.644;17.984;2023-04-01T16:39:08;6.10;;;2.70;;
69588;SDS011;56792;50.644;17.984;2023-04-01T16:41:51;10.90;;;4.70;;
69588;SDS011;56792;50.644;17.984;2023-04-01T16:44:26;14.30;;;6.70;;
69588;SDS011;56792;50.644;17.984;2023-04-01T16:46:59;12.00;;;4.90;;
69588;SDS011;56792;50.644;17.984;2023-04-01T16:49:39;9.00;;;4.70;;
69588;SDS011;56792;50.644;17.984;2023-04-01T16:52:29;11.40;;;4.70;;
69588;SDS011;56792;50.644;17.984;2023-04-01T16:55:08;14.10;;;6.30;;
69588;SDS011;56792;50.644;17.984;2023-04-01T16:57:48;10.90;;;7.10;;
69588;SDS011;56792;50.644;17.984;2023-04-01T17:00:25;11.90;;;8.30;;
69588;SDS011;56792;50.644;17.984;2023-04-01T17:03:03;11.30;;;7.30;;
69588;SDS011;56792;50.644;17.984;2023-04-01T17:05:52;13.20;;;8.00;;